createdAt,value
2018-10-07T00:01:02.807Z,68.00
2018-10-07T00:03:31.621Z,68.58
2018-10-07T00:06:00.416Z,68.14
2018-10-07T00:08:29.568Z,68.81
2018-10-07T00:10:58.393Z,68.77
2018-10-07T00:13:27.288Z,69.37
2018-10-07T00:15:56.150Z,68.87
2018-10-07T00:18:24.923Z,69.41
2018-10-07T00:20:53.708Z,69.47
2018-10-07T00:23:22.552Z,69.59
2018-10-07T00:25:51.331Z,70.39
2018-10-07T00:28:20.143Z,69.71
2018-10-07T00:30:49.052Z,70.58
2018-10-07T00:33:17.822Z,70.37
2018-10-07T00:35:46.670Z,70.82
2018-10-07T00:38:15.417Z,70.96
2018-10-07T00:40:44.183Z,70.67
2018-10-07T00:43:13.020Z,71.17
2018-10-07T00:45:41.811Z,70.70
2018-10-07T00:48:10.717Z,71.01
2018-10-07T00:50:39.505Z,71.11
2018-10-07T00:53:08.329Z,71.57
2018-10-07T00:55:37.119Z,71.94
2018-10-07T00:58:06.311Z,71.86
2018-10-07T01:00:35.189Z,72.14
2018-10-07T01:03:03.986Z,72.09
2018-10-07T01:05:32.801Z,72.80
2018-10-07T01:08:01.612Z,73.44
2018-10-07T01:10:30.417Z,72.59
2018-10-07T01:12:59.227Z,72.34
2018-10-07T01:15:28.016Z,72.91
2018-10-07T01:17:56.811Z,72.69
2018-10-07T01:20:25.653Z,73.66
2018-10-07T01:22:54.424Z,73.15
2018-10-07T01:25:23.232Z,73.15
2018-10-07T01:27:52.001Z,73.22
2018-10-07T01:30:22.884Z,73.22
2018-10-07T01:32:53.584Z,73.19
2018-10-07T01:35:22.384Z,73.01
2018-10-07T01:37:51.322Z,73.56
2018-10-07T01:40:20.531Z,72.60
2018-10-07T01:42:49.397Z,73.66
2018-10-07T01:45:18.285Z,73.06
2018-10-07T01:47:47.217Z,73.13
2018-10-07T01:50:16.073Z,72.68
2018-10-07T01:52:44.865Z,72.80
2018-10-07T01:55:13.652Z,72.64
2018-10-07T01:57:42.569Z,72.78
2018-10-07T02:00:11.457Z,73.37
2018-10-07T02:02:40.287Z,73.30
2018-10-07T02:05:09.143Z,73.23
2018-10-07T02:07:38.132Z,72.63
2018-10-07T02:10:06.976Z,72.51
2018-10-07T02:12:35.756Z,72.25
2018-10-07T02:15:04.672Z,72.00
2018-10-07T02:17:33.509Z,71.96
2018-10-07T02:20:02.327Z,72.15
2018-10-07T02:22:31.125Z,71.63
2018-10-07T02:24:59.993Z,72.00
2018-10-07T02:27:28.785Z,72.06
2018-10-07T02:29:57.614Z,71.96
2018-10-07T02:32:26.404Z,72.29
2018-10-07T02:34:55.239Z,72.17
2018-10-07T02:37:24.052Z,71.69
2018-10-07T02:39:52.869Z,72.35
2018-10-07T02:42:21.708Z,72.93
2018-10-07T02:44:50.519Z,73.31
2018-10-07T02:47:19.772Z,73.94
2018-10-07T02:49:48.668Z,73.50
2018-10-07T02:52:22.637Z,74.07
2018-10-07T02:54:51.549Z,74.23
2018-10-07T02:57:20.478Z,74.02
2018-10-07T02:59:49.968Z,73.66
2018-10-07T03:02:18.861Z,73.67
2018-10-07T03:04:47.753Z,74.20
2018-10-07T03:07:16.662Z,73.71
2018-10-07T03:09:45.864Z,73.88
2018-10-07T03:12:14.660Z,74.00
2018-10-07T03:14:43.442Z,73.87
2018-10-07T03:17:12.276Z,74.54
2018-10-07T03:19:41.106Z,75.12
2018-10-07T03:22:09.961Z,74.37
2018-10-07T03:24:38.731Z,74.56
2018-10-07T03:27:07.532Z,74.34
2018-10-07T03:29:36.455Z,74.95
2018-10-07T03:32:05.469Z,74.50
2018-10-07T03:34:34.321Z,74.71
2018-10-07T03:37:03.205Z,74.53
2018-10-07T03:39:32.011Z,74.53
2018-10-07T03:42:00.751Z,74.21
2018-10-07T03:44:29.568Z,74.50
2018-10-07T03:46:58.360Z,74.25
2018-10-07T03:49:27.140Z,74.40
2018-10-07T03:51:56.332Z,74.28
2018-10-07T03:54:25.132Z,74.16
2018-10-07T03:56:54.005Z,74.65
2018-10-07T03:59:22.942Z,74.50
2018-10-07T04:01:51.840Z,74.88
2018-10-07T04:04:20.688Z,74.84
2018-10-07T04:06:49.689Z,74.81
2018-10-07T04:09:18.484Z,75.24
2018-10-07T04:11:47.297Z,74.80
2018-10-07T04:14:16.101Z,74.48
2018-10-07T04:16:45.752Z,75.07
2018-10-07T04:19:14.514Z,74.86
2018-10-07T04:21:51.681Z,74.56
2018-10-07T04:24:20.532Z,75.10
2018-10-07T04:26:49.408Z,75.01
2018-10-07T04:29:18.204Z,74.76
2018-10-07T04:31:47.020Z,75.78
2018-10-07T04:34:15.841Z,75.71
2018-10-07T04:36:44.617Z,75.38
2018-10-07T04:39:14.028Z,76.52
2018-10-07T04:41:43.622Z,76.20
2018-10-07T04:44:12.513Z,75.49
2018-10-07T04:46:41.556Z,75.49
2018-10-07T04:49:10.411Z,75.71
2018-10-07T04:51:39.223Z,76.21
2018-10-07T04:54:08.060Z,75.98
2018-10-07T04:56:36.892Z,75.69
2018-10-07T04:59:05.687Z,75.36
2018-10-07T05:01:34.505Z,75.67
2018-10-07T05:04:03.324Z,75.26
2018-10-07T05:06:34.519Z,75.09
2018-10-07T05:09:06.520Z,75.15
2018-10-07T05:11:35.422Z,75.51
2018-10-07T05:14:06.133Z,75.63
2018-10-07T05:16:46.207Z,75.30
2018-10-07T05:19:15.104Z,75.32
2018-10-07T05:21:44.035Z,75.28
2018-10-07T05:24:12.876Z,75.30
2018-10-07T05:26:41.772Z,75.27
2018-10-07T05:29:10.716Z,75.24
2018-10-07T05:31:39.571Z,75.04
2018-10-07T05:34:08.357Z,75.27
2018-10-07T05:36:37.186Z,75.34
2018-10-07T05:39:08.371Z,74.99
2018-10-07T05:41:37.359Z,74.19
2018-10-07T05:44:06.211Z,74.55
2018-10-07T05:46:35.041Z,73.84
2018-10-07T05:49:03.933Z,74.45
2018-10-07T05:51:32.769Z,74.25
2018-10-07T05:54:01.592Z,74.01
2018-10-07T05:56:30.519Z,73.71
2018-10-07T05:58:59.499Z,73.21
2018-10-07T06:01:34.010Z,72.71
2018-10-07T06:04:27.608Z,72.73
2018-10-07T06:06:57.838Z,71.57
2018-10-07T06:09:29.523Z,71.25
2018-10-07T06:11:58.435Z,71.45
2018-10-07T06:14:38.457Z,71.01
2018-10-07T06:17:07.329Z,71.65
2018-10-07T06:19:36.257Z,70.83
2018-10-07T06:22:05.828Z,70.80
2018-10-07T06:24:36.977Z,70.33
2018-10-07T06:27:06.598Z,70.72
2018-10-07T06:29:36.227Z,70.71
2018-10-07T06:32:05.499Z,70.82
2018-10-07T06:34:34.388Z,70.54
2018-10-07T06:37:03.283Z,70.01
2018-10-07T06:39:32.555Z,69.66
2018-10-07T06:42:01.490Z,69.68
2018-10-07T06:44:30.408Z,69.87
2018-10-07T06:47:00.326Z,69.84
2018-10-07T06:49:29.306Z,69.66
2018-10-07T06:51:58.243Z,68.85
2018-10-07T06:54:27.055Z,69.14
2018-10-07T06:56:56.872Z,68.28
2018-10-07T06:59:25.780Z,68.07
2018-10-07T07:01:54.973Z,67.94
2018-10-07T07:04:23.817Z,67.71
2018-10-07T07:06:52.631Z,66.92
2018-10-07T07:09:21.469Z,67.07
2018-10-07T07:11:50.372Z,67.25
2018-10-07T07:14:19.220Z,66.55
2018-10-07T07:16:49.808Z,66.07
2018-10-07T07:19:18.588Z,66.01
2018-10-07T07:21:47.474Z,65.86
2018-10-07T07:24:16.322Z,65.53
2018-10-07T07:26:45.182Z,64.87
2018-10-07T07:29:14.007Z,64.79
2018-10-07T07:31:42.855Z,65.20
2018-10-07T07:34:11.668Z,64.83
2018-10-07T07:36:41.193Z,65.09
2018-10-07T07:39:10.329Z,64.63
2018-10-07T07:41:39.140Z,64.12
2018-10-07T07:44:08.058Z,64.81
2018-10-07T07:46:36.883Z,64.40
2018-10-07T07:49:05.852Z,64.44
2018-10-07T07:51:34.779Z,64.32
2018-10-07T07:54:03.600Z,63.04
2018-10-07T07:56:32.411Z,63.16
2018-10-07T07:59:01.240Z,62.96
2018-10-07T08:01:30.063Z,62.78
2018-10-07T08:03:58.937Z,62.43
2018-10-07T08:06:27.845Z,62.11
2018-10-07T08:08:56.902Z,62.16
2018-10-07T08:11:25.910Z,61.97
2018-10-07T08:13:54.756Z,61.09
2018-10-07T08:16:23.595Z,60.73
2018-10-07T08:18:52.421Z,60.40
2018-10-07T08:21:21.243Z,61.27
2018-10-07T08:23:50.142Z,60.32
2018-10-07T08:26:19.414Z,59.40
2018-10-07T08:28:48.777Z,60.29
2018-10-07T08:31:17.581Z,59.96
2018-10-07T08:33:46.392Z,59.26
2018-10-07T08:36:15.184Z,59.24
2018-10-07T08:38:44.049Z,58.39
2018-10-07T08:41:12.859Z,58.43
2018-10-07T08:43:41.648Z,58.52
2018-10-07T08:46:10.466Z,58.68
2018-10-07T08:48:39.343Z,58.12
2018-10-07T08:51:08.172Z,57.88
2018-10-07T08:53:37.242Z,57.59
2018-10-07T08:56:06.119Z,57.41
2018-10-07T08:58:35.096Z,57.58
2018-10-07T09:01:03.989Z,57.96
2018-10-07T09:03:33.030Z,56.96
2018-10-07T09:06:01.867Z,57.45
2018-10-07T09:08:30.798Z,56.76
2018-10-07T09:10:59.704Z,57.10
2018-10-07T09:13:28.565Z,56.63
2018-10-07T09:15:57.509Z,56.53
2018-10-07T09:18:26.308Z,56.87
2018-10-07T09:20:55.174Z,56.46
2018-10-07T09:23:24.173Z,55.95
2018-10-07T09:25:53.111Z,55.81
2018-10-07T09:28:22.081Z,55.33
2018-10-07T09:30:50.915Z,54.87
2018-10-07T09:33:19.698Z,54.64
2018-10-07T09:35:48.519Z,54.05
2018-10-07T09:38:17.477Z,54.37
2018-10-07T09:40:47.294Z,54.17
2018-10-07T09:43:16.256Z,54.16
2018-10-07T09:45:45.082Z,52.82
2018-10-07T09:48:14.070Z,53.19
2018-10-07T09:50:42.941Z,52.86
2018-10-07T09:53:11.753Z,53.35
2018-10-07T09:55:40.585Z,52.80
2018-10-07T09:58:09.401Z,52.35
2018-10-07T10:00:39.608Z,52.24
2018-10-07T10:03:09.198Z,51.69
2018-10-07T10:05:38.024Z,51.67
2018-10-07T10:08:07.153Z,51.54
2018-10-07T10:10:36.011Z,51.78
2018-10-07T10:13:05.244Z,51.46
2018-10-07T10:15:34.100Z,50.51
2018-10-07T10:18:06.465Z,50.73
2018-10-07T10:20:44.580Z,50.16
2018-10-07T10:23:24.492Z,49.87
2018-10-07T10:26:17.057Z,48.73
2018-10-07T10:28:51.737Z,48.73
2018-10-07T10:31:32.963Z,48.60
2018-10-07T10:34:09.241Z,47.88
2018-10-07T10:36:48.044Z,48.19
2018-10-07T10:39:56.429Z,48.42
2018-10-07T10:42:49.432Z,48.06
2018-10-07T10:45:38.403Z,47.00
2018-10-07T10:48:30.177Z,46.58
2018-10-07T10:51:04.466Z,47.21
2018-10-07T10:53:42.616Z,46.61
2018-10-07T10:56:30.888Z,45.95
2018-10-07T11:01:14.145Z,46.51
2018-10-07T11:04:58.924Z,44.91
2018-10-07T11:08:06.154Z,44.29
2018-10-07T11:10:41.886Z,44.06
2018-10-07T11:13:19.894Z,42.88
2018-10-07T11:16:00.485Z,43.63
2018-10-07T11:19:07.449Z,43.64
2018-10-07T11:23:50.873Z,43.82
2018-10-07T11:28:30.749Z,44.10
2018-10-07T11:31:13.360Z,44.21
2018-10-07T11:34:30.025Z,43.75
2018-10-07T11:38:20.752Z,43.28
2018-10-07T11:41:00.718Z,44.20
2018-10-07T11:43:39.117Z,43.48
2018-10-07T11:48:22.194Z,44.73
2018-10-07T11:51:07.510Z,44.28
2018-10-07T11:53:40.370Z,44.64
2018-10-07T11:56:09.213Z,43.87
2018-10-07T11:58:38.152Z,43.81
2018-10-07T12:01:07.225Z,44.36
2018-10-07T12:03:36.510Z,43.37
2018-10-07T12:06:05.497Z,43.42
2018-10-07T12:08:34.564Z,43.55
2018-10-07T12:11:03.573Z,42.45
2018-10-07T12:13:32.721Z,42.76
2018-10-07T12:16:01.823Z,40.78
2018-10-07T12:18:30.924Z,41.65
2018-10-07T12:20:59.887Z,41.19
2018-10-07T12:23:28.877Z,40.79
2018-10-07T12:26:04.484Z,40.23
2018-10-07T12:28:33.494Z,40.67
2018-10-07T12:31:02.474Z,40.79
2018-10-07T12:33:31.480Z,41.17
2018-10-07T12:36:00.419Z,39.47
2018-10-07T12:38:29.321Z,37.56
2018-10-07T12:40:58.365Z,38.17
2018-10-07T12:43:27.299Z,37.92
2018-10-07T12:45:56.441Z,38.09
2018-10-07T12:48:25.414Z,36.68
2018-10-07T12:50:54.460Z,36.16
2018-10-07T12:53:23.485Z,36.52
2018-10-07T12:55:52.540Z,35.26
2018-10-07T12:58:21.520Z,36.29
2018-10-07T13:00:50.544Z,36.26
2018-10-07T13:03:19.535Z,35.60
2018-10-07T13:05:48.754Z,35.46
2018-10-07T13:08:17.758Z,35.82
2018-10-07T13:10:46.729Z,35.53
2018-10-07T13:13:15.701Z,36.21
2018-10-07T13:15:44.795Z,35.85
2018-10-07T13:18:13.766Z,35.05
2018-10-07T13:20:42.793Z,35.06
2018-10-07T13:23:11.836Z,36.04
2018-10-07T13:25:40.793Z,36.15
2018-10-07T13:28:09.697Z,35.51
2018-10-07T13:30:38.758Z,35.71
2018-10-07T13:33:07.699Z,35.45
2018-10-07T13:35:36.678Z,35.85
2018-10-07T13:38:05.692Z,36.29
2018-10-07T13:40:34.594Z,36.56
2018-10-07T13:43:03.647Z,36.27
2018-10-07T13:45:32.685Z,35.49
2018-10-07T13:48:01.776Z,36.03
2018-10-07T13:50:30.815Z,35.85
2018-10-07T13:52:59.802Z,34.96
2018-10-07T13:55:28.991Z,33.92
2018-10-07T13:57:57.915Z,33.58
2018-10-07T14:00:26.904Z,33.96
2018-10-07T14:02:55.864Z,33.68
2018-10-07T14:05:24.789Z,34.72
2018-10-07T14:07:53.805Z,34.23
2018-10-07T14:10:22.777Z,35.07
2018-10-07T14:12:51.760Z,35.55
2018-10-07T14:15:20.772Z,35.69
2018-10-07T14:17:49.725Z,36.31
2018-10-07T14:20:18.917Z,36.45
2018-10-07T14:22:48.056Z,36.35
2018-10-07T14:25:17.111Z,35.51
2018-10-07T14:27:46.022Z,35.70
2018-10-07T14:30:15.048Z,35.52
2018-10-07T14:32:44.014Z,36.12
2018-10-07T14:35:13.046Z,36.41
2018-10-07T14:37:42.116Z,35.80
2018-10-07T14:40:11.076Z,35.34
2018-10-07T14:42:40.061Z,36.27
2018-10-07T14:45:09.041Z,36.49
2018-10-07T14:47:38.062Z,36.54
2018-10-07T14:50:07.484Z,36.08
2018-10-07T14:52:36.561Z,36.13
2018-10-07T14:55:05.732Z,36.07
2018-10-07T14:57:35.024Z,35.49
2018-10-07T15:00:06.032Z,35.94
2018-10-07T15:02:35.130Z,36.07
2018-10-07T15:05:04.116Z,35.14
2018-10-07T15:07:33.257Z,35.41
2018-10-07T15:10:02.261Z,35.66
2018-10-07T15:12:31.204Z,36.76
2018-10-07T15:15:00.341Z,35.94
2018-10-07T15:17:29.332Z,36.29
2018-10-07T15:19:58.428Z,37.35
2018-10-07T15:22:27.580Z,37.05
2018-10-07T15:24:56.574Z,39.13
2018-10-07T15:27:25.944Z,40.01
2018-10-07T15:29:54.914Z,41.08
2018-10-07T15:32:24.197Z,41.23
2018-10-07T15:34:53.210Z,42.25
2018-10-07T15:37:22.499Z,41.88
2018-10-07T15:39:51.601Z,42.67
2018-10-07T15:42:20.664Z,44.31
2018-10-07T15:44:49.755Z,44.32
2018-10-07T15:47:18.833Z,44.07
2018-10-07T15:49:50.052Z,43.28
2018-10-07T15:52:19.190Z,43.12
2018-10-07T15:54:51.164Z,44.12
2018-10-07T15:57:20.237Z,44.60
2018-10-07T15:59:49.120Z,44.25
2018-10-07T16:02:18.059Z,44.86
2018-10-07T16:04:47.109Z,44.79
2018-10-07T16:07:16.302Z,45.15
2018-10-07T16:09:46.057Z,45.33
2018-10-07T16:12:15.316Z,45.52
2018-10-07T16:14:44.400Z,46.39
2018-10-07T16:17:13.375Z,46.28
2018-10-07T16:19:42.447Z,46.75
2018-10-07T16:22:11.462Z,47.30
2018-10-07T16:24:40.364Z,47.29
2018-10-07T16:27:09.468Z,46.88
2018-10-07T16:29:38.496Z,47.34
2018-10-07T16:32:07.639Z,47.61
2018-10-07T16:34:36.574Z,47.10
2018-10-07T16:37:05.512Z,47.37
2018-10-07T16:39:34.738Z,47.30
2018-10-07T16:42:03.832Z,47.50
2018-10-07T16:44:32.845Z,47.51
2018-10-07T16:47:01.893Z,47.63
2018-10-07T16:49:31.109Z,48.19
2018-10-07T16:52:00.051Z,47.77
2018-10-07T16:54:29.165Z,48.03
2018-10-07T16:56:58.208Z,48.55
2018-10-07T16:59:27.220Z,48.37
2018-10-07T17:01:56.234Z,48.97
2018-10-07T17:04:25.244Z,48.48
2018-10-07T17:06:54.165Z,49.02
2018-10-07T17:09:23.165Z,48.64
2018-10-07T17:11:52.073Z,49.19
2018-10-07T17:14:21.090Z,48.56
2018-10-07T17:16:50.308Z,48.97
2018-10-07T17:19:19.379Z,49.62
2018-10-07T17:21:48.518Z,48.80
2018-10-07T17:24:17.628Z,49.29
2018-10-07T17:26:46.574Z,50.27
2018-10-07T17:29:15.513Z,50.27
2018-10-07T17:31:44.461Z,51.11
2018-10-07T17:34:13.473Z,50.66
2018-10-07T17:36:42.502Z,50.36
2018-10-07T17:39:12.187Z,50.62
2018-10-07T17:41:41.676Z,51.45
2018-10-07T17:44:10.652Z,51.38
2018-10-07T17:46:39.744Z,52.38
2018-10-07T17:49:08.894Z,51.89
2018-10-07T17:51:37.933Z,51.98
2018-10-07T17:54:07.020Z,52.65
2018-10-07T17:56:35.965Z,52.53
2018-10-07T17:59:05.305Z,52.95
2018-10-07T18:01:34.319Z,53.15
2018-10-07T18:04:03.504Z,52.80
2018-10-07T18:06:32.404Z,53.74
2018-10-07T18:09:01.382Z,53.29
2018-10-07T18:11:30.563Z,53.23
2018-10-07T18:13:59.453Z,53.88
2018-10-07T18:16:28.421Z,53.96
2018-10-07T18:18:57.433Z,54.18
2018-10-07T18:21:26.342Z,53.33
2018-10-07T18:23:55.409Z,53.88
2018-10-07T18:26:24.323Z,52.92
2018-10-07T18:28:53.491Z,53.17
2018-10-07T18:31:22.416Z,52.67
2018-10-07T18:33:51.361Z,53.33
2018-10-07T18:36:20.317Z,52.86
2018-10-07T18:38:49.319Z,53.46
2018-10-07T18:41:18.353Z,53.35
2018-10-07T18:43:47.278Z,53.47
2018-10-07T18:46:16.208Z,53.41
2018-10-07T18:48:45.287Z,52.73
2018-10-07T18:51:14.324Z,52.96
2018-10-07T18:53:43.319Z,53.69
2018-10-07T18:56:12.266Z,53.79
2018-10-07T18:58:41.268Z,53.31
2018-10-07T19:01:10.208Z,53.08
2018-10-07T19:03:39.297Z,54.02
2018-10-07T19:06:08.789Z,53.47
2018-10-07T19:08:37.820Z,53.96
2018-10-07T19:11:06.958Z,54.18
2018-10-07T19:13:35.785Z,54.56
2018-10-07T19:16:04.662Z,54.34
2018-10-07T19:18:33.454Z,54.93
2018-10-07T19:21:02.603Z,55.35
2018-10-07T19:23:31.488Z,55.83
2018-10-07T19:26:00.456Z,55.65
2018-10-07T19:28:29.369Z,56.14
2018-10-07T19:30:58.188Z,55.59
2018-10-07T19:33:27.135Z,56.19
2018-10-07T19:35:56.110Z,55.73
2018-10-07T19:38:24.993Z,56.05
2018-10-07T19:40:54.028Z,56.64
2018-10-07T19:43:22.852Z,56.35
2018-10-07T19:45:52.093Z,55.48
2018-10-07T19:48:21.068Z,55.88
2018-10-07T19:50:49.875Z,55.89
2018-10-07T19:53:18.672Z,55.61
2018-10-07T19:55:47.476Z,55.91
2018-10-07T19:58:16.507Z,55.15
2018-10-07T20:00:45.340Z,55.17
2018-10-07T20:03:14.200Z,55.44
2018-10-07T20:05:43.544Z,55.04
2018-10-07T20:08:12.345Z,54.80
2018-10-07T20:10:41.301Z,55.16
2018-10-07T20:13:10.138Z,55.47
2018-10-07T20:15:39.081Z,55.50
2018-10-07T20:18:08.152Z,55.11
2018-10-07T20:20:37.141Z,55.34
2018-10-07T20:23:06.152Z,55.91
2018-10-07T20:25:35.045Z,55.69
2018-10-07T20:28:04.336Z,56.10
2018-10-07T20:30:33.147Z,56.74
2018-10-07T20:33:02.258Z,57.22
2018-10-07T20:35:31.134Z,56.99
2018-10-07T20:37:59.989Z,57.66
2018-10-07T20:40:28.936Z,57.11
2018-10-07T20:42:57.960Z,57.69
2018-10-07T20:45:26.863Z,58.27
2018-10-07T20:47:55.656Z,58.10
2018-10-07T20:50:25.329Z,58.84
2018-10-07T20:52:53.676Z,59.03
2018-10-07T20:55:22.466Z,59.26
2018-10-07T20:57:51.366Z,59.71
2018-10-07T21:00:20.199Z,59.93
2018-10-07T21:02:49.072Z,59.90
2018-10-07T21:05:18.033Z,60.29
2018-10-07T21:07:47.010Z,59.94
2018-10-07T21:10:15.835Z,60.12
2018-10-07T21:12:44.761Z,60.78
2018-10-07T21:15:13.625Z,60.58
2018-10-07T21:17:42.489Z,60.82
2018-10-07T21:20:11.343Z,60.47
2018-10-07T21:22:40.223Z,61.08
2018-10-07T21:25:09.088Z,61.25
2018-10-07T21:27:37.982Z,61.20
2018-10-07T21:30:07.865Z,61.16
2018-10-07T21:32:36.762Z,61.76
2018-10-07T21:35:05.653Z,61.56
2018-10-07T21:37:34.659Z,62.28
2018-10-07T21:40:03.716Z,61.54
2018-10-07T21:42:32.563Z,61.95
2018-10-07T21:45:01.461Z,61.85
2018-10-07T21:47:30.452Z,62.91
2018-10-07T21:49:59.292Z,62.53
2018-10-07T21:52:28.297Z,63.00
2018-10-07T21:54:57.238Z,63.14
2018-10-07T21:57:26.140Z,63.30
2018-10-07T21:59:55.024Z,63.16
2018-10-07T22:02:23.804Z,63.67
2018-10-07T22:04:52.604Z,64.10
2018-10-07T22:07:21.804Z,64.03
2018-10-07T22:09:50.691Z,63.71
2018-10-07T22:12:19.558Z,63.83
2018-10-07T22:14:48.385Z,64.69
2018-10-07T22:17:17.187Z,64.40
2018-10-07T22:19:46.137Z,64.87
2018-10-07T22:22:15.189Z,65.28
2018-10-07T22:24:44.708Z,64.40
2018-10-07T22:27:13.620Z,64.77
2018-10-07T22:29:42.515Z,64.34
2018-10-07T22:32:11.337Z,65.02
2018-10-07T22:34:40.187Z,64.77
2018-10-07T22:37:09.092Z,64.94
2018-10-07T22:39:37.892Z,65.32
2018-10-07T22:42:06.724Z,65.84
2018-10-07T22:44:35.667Z,65.91
2018-10-07T22:47:04.620Z,65.70
2018-10-07T22:49:33.596Z,65.66
2018-10-07T22:52:02.506Z,65.44
2018-10-07T22:54:31.362Z,65.37
2018-10-07T22:57:00.224Z,65.38
2018-10-07T22:59:29.046Z,65.46
2018-10-07T23:01:58.008Z,65.69
2018-10-07T23:04:26.912Z,65.27
2018-10-07T23:06:55.785Z,65.82
2018-10-07T23:09:24.730Z,66.22
2018-10-07T23:11:53.537Z,65.81
2018-10-07T23:14:22.476Z,66.00
2018-10-07T23:16:51.496Z,65.99
2018-10-07T23:19:20.379Z,66.42
2018-10-07T23:21:49.376Z,65.90
2018-10-07T23:24:18.191Z,66.55
2018-10-07T23:26:47.897Z,66.84
2018-10-07T23:29:16.795Z,65.96
2018-10-07T23:31:45.644Z,66.46
2018-10-07T23:34:14.583Z,66.41
2018-10-07T23:36:43.471Z,65.94
2018-10-07T23:39:12.812Z,65.77
2018-10-07T23:41:41.808Z,65.76
2018-10-07T23:44:10.583Z,65.95
2018-10-07T23:46:39.360Z,65.90
2018-10-07T23:49:08.717Z,66.06
2018-10-07T23:51:37.705Z,66.82
2018-10-07T23:54:06.748Z,66.34
2018-10-07T23:56:35.587Z,67.51
2018-10-07T23:59:04.391Z,67.25
